Terminal Aerodrome Forecast
Issued by NWS

Home | Current Version | Previous Version | Text Only | Print | Product List | Glossary Off
Versions: 1 2 3 4 5 6 7 8 9 10 11 12

000
FTUS42 KMHX 210546
TAFPGV
TAF
KPGV 210546Z 2106/2206 00000KT P6SM SKC
     FM210900 00000KT 3SM BR SCT005 SCT250
      TEMPO 2109/2112 2SM BR BKN005
     FM211230 23005KT P6SM BKN050
     FM212000 22008KT P6SM VCTS BKN050CB
      AMD LTD TO CLD VIS AND WIND=

USA.gov is the U.S. government's official web portal to all federal, state and local government web resources and services.